createdAt,value
2023-06-01T00:01:03.002Z,69.59
2023-06-01T00:03:31.945Z,69.58
2023-06-01T00:05:59.892Z,69.54
2023-06-01T00:08:28.457Z,69.89
2023-06-01T00:10:56.970Z,69.68
2023-06-01T00:13:25.376Z,69.62
2023-06-01T00:15:53.485Z,70.00
2023-06-01T00:18:21.412Z,69.79
2023-06-01T00:20:49.230Z,69.94
2023-06-01T00:23:21.406Z,69.85
2023-06-01T00:25:49.944Z,69.76
2023-06-01T00:28:18.092Z,69.91
2023-06-01T00:30:46.702Z,70.00
2023-06-01T00:33:14.604Z,69.90
2023-06-01T00:35:44.391Z,69.77
2023-06-01T00:38:14.249Z,69.83
2023-06-01T00:40:45.014Z,69.81
2023-06-01T00:43:13.160Z,69.71
2023-06-01T00:45:41.183Z,69.86
2023-06-01T00:48:09.764Z,69.90
2023-06-01T00:50:38.448Z,69.93
2023-06-01T00:53:10.741Z,69.88
2023-06-01T00:55:40.329Z,69.95
2023-06-01T00:58:09.642Z,69.94
2023-06-01T01:00:40.672Z,70.02
2023-06-01T01:03:10.561Z,69.96
2023-06-01T01:05:41.340Z,69.50
2023-06-01T01:08:29.481Z,69.72
2023-06-01T01:11:10.586Z,69.60
2023-06-01T01:13:46.421Z,69.64
2023-06-01T01:16:29.095Z,69.43
2023-06-01T01:19:17.744Z,69.43
2023-06-01T01:22:05.147Z,69.42
2023-06-01T01:24:59.533Z,69.27
2023-06-01T01:27:57.436Z,69.11
2023-06-01T01:30:29.240Z,69.13
2023-06-01T01:32:59.691Z,68.93
2023-06-01T01:35:29.455Z,69.20
2023-06-01T01:37:58.114Z,69.04
2023-06-01T01:40:26.891Z,69.11
2023-06-01T01:42:56.067Z,68.93
2023-06-01T01:45:26.366Z,68.75
2023-06-01T01:48:18.356Z,68.66
2023-06-01T01:51:17.167Z,68.66
2023-06-01T01:53:47.335Z,68.47
2023-06-01T01:56:16.732Z,68.22
2023-06-01T01:58:45.955Z,68.20
2023-06-01T02:01:15.979Z,67.93
2023-06-01T02:03:48.241Z,67.74
2023-06-01T02:06:19.336Z,67.64
2023-06-01T02:08:47.838Z,67.53
2023-06-01T02:11:15.903Z,67.38
2023-06-01T02:13:46.645Z,67.22
2023-06-01T02:16:15.372Z,67.20
2023-06-01T02:18:47.331Z,66.92
2023-06-01T02:21:20.417Z,67.01
2023-06-01T02:23:49.311Z,66.58
2023-06-01T02:26:17.507Z,66.25
2023-06-01T02:28:46.516Z,66.12
2023-06-01T02:31:16.238Z,65.83
2023-06-01T02:33:43.995Z,65.67
2023-06-01T02:36:11.958Z,65.57
2023-06-01T02:38:41.164Z,65.36
2023-06-01T02:41:09.400Z,65.24
2023-06-01T02:43:37.759Z,64.89
2023-06-01T02:46:06.285Z,64.56
2023-06-01T02:48:37.570Z,64.31
2023-06-01T02:51:06.685Z,64.06
2023-06-01T02:53:34.524Z,63.91
2023-06-01T02:56:15.870Z,63.54
2023-06-01T02:59:10.181Z,63.31
2023-06-01T03:01:44.456Z,63.03
2023-06-01T03:04:13.757Z,62.65
2023-06-01T03:06:41.840Z,62.74
2023-06-01T03:09:27.487Z,62.55
2023-06-01T03:12:17.999Z,62.19
2023-06-01T03:14:46.571Z,62.25
2023-06-01T03:17:14.938Z,61.75
2023-06-01T03:19:42.969Z,61.67
2023-06-01T03:22:18.608Z,61.59
2023-06-01T03:24:50.757Z,61.20
2023-06-01T03:27:24.149Z,60.84
2023-06-01T03:29:53.026Z,60.52
2023-06-01T03:32:23.249Z,60.42
2023-06-01T03:34:53.524Z,60.07
2023-06-01T03:37:22.005Z,59.82
2023-06-01T03:39:50.268Z,59.52
2023-06-01T03:42:24.213Z,59.36
2023-06-01T03:44:55.195Z,58.94
2023-06-01T03:47:25.394Z,58.44
2023-06-01T03:49:55.072Z,58.26
2023-06-01T03:52:27.252Z,57.70
2023-06-01T03:55:12.032Z,57.33
2023-06-01T03:58:03.752Z,57.19
2023-06-01T04:00:32.226Z,56.79
2023-06-01T04:03:09.032Z,56.37
2023-06-01T04:05:40.663Z,56.17
2023-06-01T04:08:10.137Z,55.67
2023-06-01T04:15:01.252Z,54.91
2023-06-01T04:17:32.027Z,54.75
2023-06-01T04:20:00.644Z,54.12
2023-06-01T04:22:28.327Z,53.93
2023-06-01T04:24:56.181Z,53.53
2023-06-01T04:27:25.735Z,53.31
2023-06-01T04:29:54.742Z,53.02
2023-06-01T04:32:22.873Z,53.02
2023-06-01T04:34:53.759Z,52.39
2023-06-01T04:37:23.772Z,52.16
2023-06-01T04:39:52.821Z,52.07
2023-06-01T04:42:22.712Z,51.40
2023-06-01T04:44:50.903Z,51.26
2023-06-01T04:47:22.254Z,51.08
2023-06-01T04:49:54.897Z,50.36
2023-06-01T04:52:24.002Z,50.06
2023-06-01T04:54:52.402Z,49.97
2023-06-01T04:57:20.225Z,49.65
2023-06-01T04:59:47.801Z,49.29
2023-06-01T05:02:15.494Z,49.22
2023-06-01T05:04:43.668Z,48.81
2023-06-01T05:07:11.497Z,48.53
2023-06-01T05:09:39.406Z,48.06
2023-06-01T05:12:10.199Z,48.03
2023-06-01T05:14:41.144Z,47.77
2023-06-01T05:17:09.056Z,47.52
2023-06-01T05:19:36.971Z,47.29
2023-06-01T05:22:08.052Z,46.97
2023-06-01T05:24:59.606Z,46.83
2023-06-01T05:28:26.829Z,46.66
2023-06-01T05:30:55.688Z,46.47
2023-06-01T05:33:23.533Z,46.22
2023-06-01T05:35:51.704Z,45.90
2023-06-01T05:38:23.270Z,45.51
2023-06-01T05:40:51.751Z,45.30
2023-06-01T05:43:19.842Z,45.02
2023-06-01T05:45:49.824Z,44.81
2023-06-01T05:48:18.259Z,44.51
2023-06-01T05:50:51.173Z,44.27
2023-06-01T05:53:19.783Z,44.28
2023-06-01T05:55:47.776Z,43.89
2023-06-01T05:58:16.317Z,43.88
2023-06-01T06:00:44.513Z,43.61
2023-06-01T06:03:13.047Z,43.32
2023-06-01T06:05:41.642Z,43.10
2023-06-01T06:08:11.683Z,43.13
2023-06-01T06:10:39.641Z,43.21
2023-06-01T06:13:07.580Z,43.02
2023-06-01T06:15:35.767Z,42.66
2023-06-01T06:18:04.203Z,42.33
2023-06-01T06:20:32.232Z,42.16
2023-06-01T06:23:00.927Z,42.18
2023-06-01T06:25:28.818Z,42.21
2023-06-01T06:27:56.994Z,42.12
2023-06-01T06:30:26.313Z,41.93
2023-06-01T06:32:54.457Z,41.91
2023-06-01T06:35:22.150Z,41.81
2023-06-01T06:37:50.005Z,41.68
2023-06-01T06:40:19.395Z,41.69
2023-06-01T06:42:49.091Z,41.42
2023-06-01T06:45:18.193Z,41.48
2023-06-01T06:47:47.610Z,41.43
2023-06-01T06:50:15.412Z,41.15
2023-06-01T06:52:43.239Z,41.06
2023-06-01T06:55:11.600Z,40.74
2023-06-01T06:57:40.493Z,40.84
2023-06-01T07:00:09.915Z,40.94
2023-06-01T07:02:37.836Z,40.75
2023-06-01T07:05:07.341Z,40.46
2023-06-01T07:07:35.451Z,40.43
2023-06-01T07:10:03.405Z,40.25
2023-06-01T07:12:31.916Z,40.11
2023-06-01T07:14:59.742Z,40.10
2023-06-01T07:17:27.740Z,39.72
2023-06-01T07:19:55.764Z,39.92
2023-06-01T07:22:23.766Z,39.70
2023-06-01T07:24:56.020Z,39.92
2023-06-01T07:27:24.508Z,39.62
2023-06-01T07:29:56.432Z,39.54
2023-06-01T07:32:26.419Z,39.44
2023-06-01T07:35:00.669Z,39.42
2023-06-01T07:37:29.125Z,39.11
2023-06-01T07:39:59.692Z,39.03
2023-06-01T07:42:28.179Z,38.68
2023-06-01T07:44:56.222Z,38.75
2023-06-01T07:47:26.558Z,38.36
2023-06-01T07:50:01.006Z,38.25
2023-06-01T07:52:34.786Z,37.85
2023-06-01T07:55:06.393Z,38.06
2023-06-01T07:57:34.399Z,38.08
2023-06-01T08:00:11.166Z,37.85
2023-06-01T08:02:46.159Z,37.86
2023-06-01T08:05:20.516Z,37.45
2023-06-01T08:07:54.008Z,37.36
2023-06-01T08:10:35.351Z,36.79
2023-06-01T08:13:06.047Z,36.54
2023-06-01T08:15:38.490Z,36.71
2023-06-01T08:18:07.722Z,36.34
2023-06-01T08:20:36.882Z,36.43
2023-06-01T08:23:11.029Z,36.44
2023-06-01T08:25:39.211Z,36.31
2023-06-01T08:28:07.342Z,36.45
2023-06-01T08:30:35.342Z,35.95
2023-06-01T08:33:04.410Z,35.83
2023-06-01T08:35:34.598Z,35.71
2023-06-01T08:38:02.862Z,35.33
2023-06-01T08:40:33.331Z,35.33
2023-06-01T08:43:11.016Z,35.48
2023-06-01T08:45:40.153Z,35.42
2023-06-01T08:48:09.824Z,35.24
2023-06-01T08:50:38.743Z,35.16
2023-06-01T08:53:08.035Z,34.97
2023-06-01T08:55:36.097Z,34.53
2023-06-01T08:58:05.047Z,34.53
2023-06-01T09:00:34.070Z,34.63
2023-06-01T09:03:05.465Z,34.39
2023-06-01T09:05:33.534Z,34.30
2023-06-01T09:08:01.757Z,34.11
2023-06-01T09:10:29.756Z,33.68
2023-06-01T09:12:57.668Z,33.66
2023-06-01T09:15:26.950Z,33.37
2023-06-01T09:18:11.772Z,33.37
2023-06-01T09:20:40.822Z,33.90
2023-06-01T09:23:09.033Z,33.45
2023-06-01T09:25:37.301Z,33.65
2023-06-01T09:28:06.304Z,33.73
2023-06-01T09:30:42.427Z,33.27
2023-06-01T09:33:18.015Z,33.23
2023-06-01T09:35:48.728Z,33.17
2023-06-01T09:38:27.363Z,32.75
2023-06-01T09:41:02.350Z,32.55
2023-06-01T09:43:32.183Z,32.37
2023-06-01T09:46:12.949Z,32.15
2023-06-01T09:48:43.378Z,31.86
2023-06-01T09:51:33.859Z,31.96
2023-06-01T09:54:02.424Z,32.01
2023-06-01T09:56:44.264Z,31.83
2023-06-01T09:59:12.490Z,31.85
2023-06-01T10:01:40.574Z,31.76
2023-06-01T10:04:11.744Z,31.82
2023-06-01T10:06:41.792Z,31.06
2023-06-01T10:09:17.185Z,31.04
2023-06-01T10:11:45.164Z,30.71
2023-06-01T10:14:13.889Z,30.74
2023-06-01T10:16:42.876Z,30.62
2023-06-01T10:19:12.224Z,30.47
2023-06-01T10:21:41.380Z,30.52
2023-06-01T10:24:10.713Z,30.28
2023-06-01T10:26:45.187Z,29.94
2023-06-01T10:29:14.475Z,29.95
2023-06-01T10:31:44.311Z,29.95
2023-06-01T10:34:14.759Z,29.49
2023-06-01T10:36:55.290Z,29.22
2023-06-01T10:39:35.308Z,28.86
2023-06-01T10:42:16.538Z,28.84
2023-06-01T10:44:44.441Z,28.86
2023-06-01T10:47:12.349Z,29.08
2023-06-01T10:49:49.977Z,29.05
2023-06-01T10:52:39.686Z,29.02
2023-06-01T10:55:07.910Z,28.84
2023-06-01T10:57:35.996Z,28.59
2023-06-01T11:00:12.581Z,28.36
2023-06-01T11:03:01.158Z,28.49
2023-06-01T11:05:49.283Z,28.46
2023-06-01T11:08:23.766Z,27.73
2023-06-01T11:10:52.316Z,27.87
2023-06-01T11:13:28.736Z,27.53
2023-06-01T11:16:11.137Z,27.83
2023-06-01T11:18:43.090Z,27.92
2023-06-01T11:21:19.152Z,27.57
2023-06-01T11:23:47.588Z,27.84
2023-06-01T11:26:20.755Z,27.78
2023-06-01T11:28:52.981Z,27.74
2023-06-01T11:31:29.274Z,27.92
2023-06-01T11:34:00.944Z,27.63
2023-06-01T11:36:29.452Z,27.71
2023-06-01T11:39:01.358Z,27.53
2023-06-01T11:41:39.144Z,27.05
2023-06-01T11:44:08.021Z,26.90
2023-06-01T11:46:36.067Z,26.90
2023-06-01T11:49:07.936Z,26.99
2023-06-01T11:51:43.812Z,27.09
2023-06-01T11:54:11.990Z,26.93
2023-06-01T11:56:40.798Z,26.98
2023-06-01T11:59:14.348Z,26.64
2023-06-01T12:01:50.209Z,26.57
2023-06-01T12:04:24.465Z,26.29
2023-06-01T12:06:53.017Z,26.26
2023-06-01T12:09:23.720Z,26.41
2023-06-01T12:11:51.715Z,26.09
2023-06-01T12:14:20.227Z,26.19
2023-06-01T12:17:06.625Z,25.64
2023-06-01T12:19:37.118Z,25.44
2023-06-01T12:22:06.039Z,25.10
2023-06-01T12:24:34.894Z,25.25
2023-06-01T12:27:13.857Z,25.70
2023-06-01T12:29:44.098Z,25.59
2023-06-01T12:32:16.149Z,25.53
2023-06-01T12:34:49.172Z,25.48
2023-06-01T12:37:21.797Z,25.48
2023-06-01T12:39:55.481Z,25.50
2023-06-01T12:42:38.826Z,23.73
2023-06-01T12:45:10.428Z,21.91
2023-06-01T12:47:43.435Z,21.79
2023-06-01T12:50:13.883Z,21.64
2023-06-01T12:52:46.050Z,22.27
2023-06-01T12:55:14.505Z,22.71
2023-06-01T12:57:45.733Z,21.63
2023-06-01T13:00:14.441Z,20.50
2023-06-01T13:02:42.488Z,21.52
2023-06-01T13:05:10.569Z,22.66
2023-06-01T13:07:38.479Z,23.21
2023-06-01T13:10:07.140Z,23.64
2023-06-01T13:12:37.425Z,24.35
2023-06-01T13:15:05.676Z,24.05
2023-06-01T13:17:33.957Z,22.52
2023-06-01T13:20:07.563Z,22.46
2023-06-01T13:22:35.462Z,23.04
2023-06-01T13:25:05.737Z,23.41
2023-06-01T13:27:35.246Z,24.29
2023-06-01T13:30:05.843Z,23.72
2023-06-01T13:32:38.026Z,22.88
2023-06-01T13:35:06.641Z,21.47
2023-06-01T13:37:37.639Z,20.85
2023-06-01T13:40:06.736Z,21.16
2023-06-01T13:42:35.197Z,20.65
2023-06-01T13:45:04.623Z,20.40
2023-06-01T13:47:34.159Z,21.08
2023-06-01T13:50:02.343Z,21.42
2023-06-01T13:52:31.188Z,22.10
2023-06-01T13:55:01.319Z,22.45
2023-06-01T13:57:30.039Z,22.44
2023-06-01T13:59:58.066Z,23.00
2023-06-01T14:02:28.745Z,23.26
2023-06-01T14:05:05.997Z,22.90
2023-06-01T14:07:36.251Z,22.63
2023-06-01T14:10:05.190Z,23.03
2023-06-01T14:12:33.194Z,23.20
2023-06-01T14:15:00.893Z,22.29
2023-06-01T14:17:32.109Z,20.31
2023-06-01T14:20:00.166Z,19.23
2023-06-01T14:22:28.684Z,18.55
2023-06-01T14:24:56.696Z,18.40
2023-06-01T14:27:24.737Z,18.31
2023-06-01T14:29:52.411Z,17.59
2023-06-01T14:32:20.351Z,17.40
2023-06-01T14:34:48.616Z,17.40
2023-06-01T14:37:16.569Z,17.45
2023-06-01T14:39:44.882Z,18.44
2023-06-01T14:42:12.921Z,17.94
2023-06-01T14:44:41.182Z,17.21
2023-06-01T14:47:10.032Z,16.86
2023-06-01T14:49:46.477Z,16.86
2023-06-01T14:52:15.228Z,16.89
2023-06-01T14:54:43.948Z,17.17
2023-06-01T14:57:12.230Z,18.28
2023-06-01T14:59:45.658Z,18.28
2023-06-01T15:02:19.408Z,18.37
2023-06-01T15:04:49.207Z,19.17
2023-06-01T15:07:17.817Z,19.92
2023-06-01T15:09:46.138Z,20.94
2023-06-01T15:12:13.855Z,22.07
2023-06-01T15:14:42.444Z,22.97
2023-06-01T15:17:11.144Z,23.53
2023-06-01T15:19:39.247Z,23.92
2023-06-01T15:22:07.728Z,24.29
2023-06-01T15:24:37.038Z,24.67
2023-06-01T15:27:05.733Z,24.71
2023-06-01T15:29:33.558Z,24.94
2023-06-01T15:32:01.860Z,24.67
2023-06-01T15:34:31.181Z,24.92
2023-06-01T15:36:58.856Z,24.89
2023-06-01T15:39:26.734Z,25.20
2023-06-01T15:41:58.075Z,25.14
2023-06-01T15:44:28.314Z,25.59
2023-06-01T15:46:56.444Z,25.48
2023-06-01T15:49:24.595Z,25.50
2023-06-01T15:51:52.463Z,25.60
2023-06-01T15:54:20.643Z,25.95
2023-06-01T15:56:48.531Z,25.96
2023-06-01T15:59:17.954Z,26.44
2023-06-01T16:01:46.165Z,26.41
2023-06-01T16:04:16.119Z,26.92
2023-06-01T16:06:45.066Z,27.24
2023-06-01T16:09:14.090Z,27.49
2023-06-01T16:11:42.307Z,27.32
2023-06-01T16:14:10.124Z,27.64
2023-06-01T16:16:38.116Z,27.61
2023-06-01T16:19:06.792Z,27.71
2023-06-01T16:21:34.835Z,28.04
2023-06-01T16:24:03.868Z,27.93
2023-06-01T16:26:32.743Z,28.47
2023-06-01T16:29:00.814Z,28.26
2023-06-01T16:31:29.141Z,28.73
2023-06-01T16:33:57.045Z,28.52
2023-06-01T16:36:25.178Z,28.72
2023-06-01T16:38:52.872Z,29.07
2023-06-01T16:41:20.859Z,29.26
2023-06-01T16:43:48.899Z,29.11
2023-06-01T16:46:16.754Z,29.46
2023-06-01T16:48:44.729Z,29.25
2023-06-01T16:51:12.686Z,29.67
2023-06-01T16:53:40.745Z,29.57
2023-06-01T16:56:08.850Z,29.87
2023-06-01T16:58:36.479Z,29.84
2023-06-01T17:01:04.699Z,30.18
2023-06-01T17:03:33.010Z,30.19
2023-06-01T17:06:00.922Z,30.14
2023-06-01T17:08:29.069Z,30.21
2023-06-01T17:10:56.970Z,30.47
2023-06-01T17:13:26.260Z,30.88
2023-06-01T17:15:56.764Z,31.01
2023-06-01T17:18:25.146Z,30.90
2023-06-01T17:20:53.726Z,31.07
2023-06-01T17:23:24.501Z,31.51
2023-06-01T18:12:36.978Z,35.68
2023-06-01T18:15:10.600Z,36.11
2023-06-01T18:17:42.488Z,36.43
2023-06-01T18:20:15.590Z,36.59
2023-06-01T18:22:44.055Z,37.02
2023-06-01T18:25:12.712Z,37.19
2023-06-01T18:27:51.562Z,37.31
2023-06-01T18:30:20.067Z,37.69
2023-06-01T18:32:48.642Z,37.51
2023-06-01T18:35:17.187Z,37.80
2023-06-01T18:42:57.430Z,38.04
2023-06-01T18:45:53.005Z,38.30
2023-06-01T18:48:32.446Z,38.41
2023-06-01T18:51:02.655Z,38.78
2023-06-01T18:54:25.326Z,38.98
2023-06-01T18:57:04.305Z,39.17
2023-06-01T18:59:37.740Z,39.21
2023-06-01T19:02:10.747Z,39.66
2023-06-01T19:04:42.483Z,39.76
2023-06-01T19:12:50.436Z,40.05
2023-06-01T19:15:13.641Z,40.19
2023-06-01T19:17:54.621Z,40.28
2023-06-01T19:21:22.023Z,40.52
2023-06-01T19:23:58.766Z,40.70
2023-06-01T19:26:33.061Z,40.75
2023-06-01T19:29:22.709Z,40.95
2023-06-01T19:32:15.612Z,41.30
2023-06-01T19:35:54.168Z,41.23
2023-06-01T19:38:20.220Z,41.41
2023-06-01T19:41:19.243Z,41.58
2023-06-01T19:44:13.534Z,41.83
2023-06-01T19:47:26.865Z,41.83
2023-06-01T19:50:03.127Z,41.94
2023-06-01T19:53:03.232Z,42.23
2023-06-01T20:13:58.420Z,41.95
2023-06-01T20:16:49.230Z,41.93
2023-06-01T20:19:57.506Z,41.91
2023-06-01T20:22:28.975Z,42.15
2023-06-01T20:24:56.932Z,42.53
2023-06-01T20:27:26.153Z,42.38
2023-06-01T20:29:53.824Z,42.36
2023-06-01T20:32:24.598Z,42.73
2023-06-01T20:34:52.860Z,42.82
2023-06-01T20:37:22.003Z,42.85
2023-06-01T20:39:51.351Z,43.10
2023-06-01T20:42:19.152Z,43.31
2023-06-01T20:44:46.934Z,43.21
2023-06-01T20:47:19.008Z,43.37
2023-06-01T20:49:46.737Z,43.48
2023-06-01T20:52:14.566Z,43.58
2023-06-01T20:54:43.850Z,43.78
2023-06-01T20:57:13.495Z,43.69
2023-06-01T20:59:41.606Z,44.16
2023-06-01T21:02:11.379Z,44.37
2023-06-01T21:04:39.908Z,44.13
2023-06-01T21:07:08.961Z,44.39
2023-06-01T21:09:36.937Z,44.64
2023-06-01T21:57:15.896Z,44.93
2023-06-01T21:59:44.131Z,45.08
2023-06-01T22:02:12.204Z,45.29
2023-06-01T22:04:40.153Z,45.54
2023-06-01T22:07:08.710Z,45.54
2023-06-01T22:09:37.234Z,45.64
2023-06-01T22:12:05.961Z,46.03
2023-06-01T22:14:33.919Z,46.15
2023-06-01T22:17:02.293Z,46.25
2023-06-01T22:19:30.339Z,46.36
2023-06-01T22:22:02.917Z,46.19
2023-06-01T22:24:31.122Z,46.21
2023-06-01T22:26:59.196Z,46.36
2023-06-01T22:29:27.164Z,46.53
2023-06-01T22:31:55.113Z,46.81
2023-06-01T22:34:23.068Z,46.83
2023-06-01T22:36:51.885Z,46.83
2023-06-01T22:39:19.639Z,46.70
2023-06-01T22:41:47.316Z,46.73
2023-06-01T22:44:15.378Z,46.90
2023-06-01T22:46:43.253Z,47.13
2023-06-01T22:49:11.761Z,47.42
2023-06-01T22:51:41.632Z,47.38
2023-06-01T22:54:09.864Z,47.61
2023-06-01T22:56:38.499Z,47.56
2023-06-01T22:59:06.508Z,47.65
2023-06-01T23:01:34.322Z,47.71
2023-06-01T23:04:02.473Z,47.60
2023-06-01T23:06:34.101Z,47.72
2023-06-01T23:09:05.482Z,47.80
2023-06-01T23:11:34.300Z,47.73
2023-06-01T23:14:12.386Z,48.10
2023-06-01T23:16:40.764Z,48.09
2023-06-01T23:19:10.061Z,48.21
2023-06-01T23:21:45.115Z,48.06
2023-06-01T23:24:13.080Z,48.34
2023-06-01T23:26:41.000Z,48.32
2023-06-01T23:29:09.325Z,48.62
2023-06-01T23:31:37.396Z,48.73
2023-06-01T23:34:07.103Z,48.93
2023-06-01T23:36:35.478Z,49.09
2023-06-01T23:39:09.464Z,49.34
2023-06-01T23:41:38.057Z,49.50
2023-06-01T23:44:07.583Z,49.60
2023-06-01T23:46:36.214Z,49.51
2023-06-01T23:49:04.970Z,49.84
2023-06-01T23:51:32.777Z,49.89
2023-06-01T23:54:01.232Z,49.88
2023-06-01T23:56:29.423Z,50.15
2023-06-01T23:58:58.716Z,50.25
